sensor_id;sensor_type;location;lat;lon;timestamp;P1;durP1;ratioP1;P2;durP2;ratioP2
15968;SDS011;8085;53.472;9.794;2023-05-23T00:02:21;9.67;;;8.67;;
15968;SDS011;8085;53.472;9.794;2023-05-23T00:04:48;9.30;;;8.23;;
15968;SDS011;8085;53.472;9.794;2023-05-23T00:07:15;11.03;;;8.80;;
15968;SDS011;8085;53.472;9.794;2023-05-23T00:09:42;10.03;;;9.03;;
15968;SDS011;8085;53.472;9.794;2023-05-23T00:12:09;9.47;;;8.57;;
15968;SDS011;8085;53.472;9.794;2023-05-23T00:14:36;9.47;;;8.47;;
15968;SDS011;8085;53.472;9.794;2023-05-23T00:17:05;10.87;;;9.30;;
15968;SDS011;8085;53.472;9.794;2023-05-23T00:19:34;10.57;;;9.40;;
15968;SDS011;8085;53.472;9.794;2023-05-23T00:22:01;10.50;;;9.50;;
15968;SDS011;8085;53.472;9.794;2023-05-23T00:24:28;13.40;;;9.37;;
15968;SDS011;8085;53.472;9.794;2023-05-23T00:26:55;13.33;;;9.87;;
15968;SDS011;8085;53.472;9.794;2023-05-23T00:29:23;10.97;;;9.70;;
15968;SDS011;8085;53.472;9.794;2023-05-23T00:31:50;10.70;;;9.03;;
15968;SDS011;8085;53.472;9.794;2023-05-23T00:34:18;10.50;;;9.50;;
15968;SDS011;8085;53.472;9.794;2023-05-23T00:36:45;10.57;;;9.57;;
15968;SDS011;8085;53.472;9.794;2023-05-23T00:39:14;11.37;;;10.27;;
15968;SDS011;8085;53.472;9.794;2023-05-23T00:41:44;12.00;;;10.27;;
15968;SDS011;8085;53.472;9.794;2023-05-23T00:44:12;11.87;;;10.40;;
15968;SDS011;8085;53.472;9.794;2023-05-23T00:46:39;11.40;;;10.30;;
15968;SDS011;8085;53.472;9.794;2023-05-23T00:49:07;11.20;;;10.10;;
15968;SDS011;8085;53.472;9.794;2023-05-23T00:51:36;11.97;;;10.77;;
15968;SDS011;8085;53.472;9.794;2023-05-23T00:54:03;15.97;;;12.13;;
15968;SDS011;8085;53.472;9.794;2023-05-23T00:56:31;14.73;;;12.53;;
15968;SDS011;8085;53.472;9.794;2023-05-23T00:58:58;20.00;;;17.90;;
15968;SDS011;8085;53.472;9.794;2023-05-23T01:01:26;22.73;;;18.83;;
15968;SDS011;8085;53.472;9.794;2023-05-23T01:03:53;27.50;;;22.40;;
15968;SDS011;8085;53.472;9.794;2023-05-23T01:06:20;28.30;;;25.43;;
15968;SDS011;8085;53.472;9.794;2023-05-23T01:08:49;28.23;;;25.37;;
15968;SDS011;8085;53.472;9.794;2023-05-23T01:11:18;30.03;;;26.90;;
15968;SDS011;8085;53.472;9.794;2023-05-23T01:13:54;31.23;;;28.03;;
15968;SDS011;8085;53.472;9.794;2023-05-23T01:16:28;31.23;;;27.73;;
15968;SDS011;8085;53.472;9.794;2023-05-23T01:19:06;30.47;;;27.50;;
15968;SDS011;8085;53.472;9.794;2023-05-23T01:21:43;30.93;;;27.63;;
15968;SDS011;8085;53.472;9.794;2023-05-23T01:24:24;30.33;;;27.10;;
15968;SDS011;8085;53.472;9.794;2023-05-23T01:27:07;31.07;;;26.33;;
15968;SDS011;8085;53.472;9.794;2023-05-23T01:29:51;29.80;;;26.63;;
15968;SDS011;8085;53.472;9.794;2023-05-23T01:32:22;34.10;;;28.30;;
15968;SDS011;8085;53.472;9.794;2023-05-23T01:34:52;31.60;;;28.27;;
15968;SDS011;8085;53.472;9.794;2023-05-23T01:37:20;36.23;;;30.83;;
15968;SDS011;8085;53.472;9.794;2023-05-23T01:39:47;42.20;;;32.57;;
15968;SDS011;8085;53.472;9.794;2023-05-23T01:42:14;38.00;;;33.63;;
15968;SDS011;8085;53.472;9.794;2023-05-23T01:44:41;41.70;;;34.33;;
15968;SDS011;8085;53.472;9.794;2023-05-23T01:47:11;41.57;;;35.80;;
15968;SDS011;8085;53.472;9.794;2023-05-23T01:49:38;48.77;;;38.63;;
15968;SDS011;8085;53.472;9.794;2023-05-23T01:52:08;49.67;;;38.47;;
15968;SDS011;8085;53.472;9.794;2023-05-23T01:54:36;42.23;;;35.63;;
15968;SDS011;8085;53.472;9.794;2023-05-23T01:57:06;49.33;;;38.57;;
15968;SDS011;8085;53.472;9.794;2023-05-23T01:59:34;50.37;;;37.87;;
15968;SDS011;8085;53.472;9.794;2023-05-23T02:02:02;51.93;;;37.67;;
15968;SDS011;8085;53.472;9.794;2023-05-23T02:04:31;55.43;;;38.13;;
15968;SDS011;8085;53.472;9.794;2023-05-23T02:06:58;45.93;;;34.03;;
15968;SDS011;8085;53.472;9.794;2023-05-23T02:09:25;51.10;;;35.37;;
15968;SDS011;8085;53.472;9.794;2023-05-23T02:11:52;48.73;;;35.67;;
15968;SDS011;8085;53.472;9.794;2023-05-23T02:14:19;47.83;;;35.40;;
15968;SDS011;8085;53.472;9.794;2023-05-23T02:16:48;45.77;;;34.00;;
15968;SDS011;8085;53.472;9.794;2023-05-23T02:19:17;43.80;;;34.33;;
15968;SDS011;8085;53.472;9.794;2023-05-23T02:21:45;50.40;;;33.90;;
15968;SDS011;8085;53.472;9.794;2023-05-23T02:24:12;51.20;;;36.57;;
15968;SDS011;8085;53.472;9.794;2023-05-23T02:26:39;51.80;;;36.10;;
15968;SDS011;8085;53.472;9.794;2023-05-23T02:29:06;53.13;;;37.47;;
15968;SDS011;8085;53.472;9.794;2023-05-23T02:31:33;59.53;;;38.10;;
15968;SDS011;8085;53.472;9.794;2023-05-23T02:34:01;52.07;;;37.40;;
15968;SDS011;8085;53.472;9.794;2023-05-23T02:36:28;52.67;;;36.57;;
15968;SDS011;8085;53.472;9.794;2023-05-23T02:38:58;50.70;;;37.13;;
15968;SDS011;8085;53.472;9.794;2023-05-23T02:41:25;53.17;;;37.47;;
15968;SDS011;8085;53.472;9.794;2023-05-23T02:43:52;51.67;;;34.93;;
15968;SDS011;8085;53.472;9.794;2023-05-23T02:46:19;50.93;;;37.57;;
15968;SDS011;8085;53.472;9.794;2023-05-23T02:48:48;53.93;;;34.93;;
15968;SDS011;8085;53.472;9.794;2023-05-23T02:51:15;50.40;;;33.63;;
15968;SDS011;8085;53.472;9.794;2023-05-23T02:53:42;43.23;;;32.00;;
15968;SDS011;8085;53.472;9.794;2023-05-23T02:56:10;51.10;;;34.37;;
15968;SDS011;8085;53.472;9.794;2023-05-23T02:58:37;46.20;;;34.60;;
15968;SDS011;8085;53.472;9.794;2023-05-23T03:01:04;56.50;;;36.07;;
15968;SDS011;8085;53.472;9.794;2023-05-23T03:03:32;50.10;;;35.77;;
15968;SDS011;8085;53.472;9.794;2023-05-23T03:05:59;53.67;;;35.23;;
15968;SDS011;8085;53.472;9.794;2023-05-23T03:08:27;45.50;;;34.63;;
15968;SDS011;8085;53.472;9.794;2023-05-23T03:10:54;51.23;;;35.13;;
15968;SDS011;8085;53.472;9.794;2023-05-23T03:13:22;52.60;;;35.60;;
15968;SDS011;8085;53.472;9.794;2023-05-23T03:15:49;51.50;;;33.47;;
15968;SDS011;8085;53.472;9.794;2023-05-23T03:18:16;45.53;;;31.77;;
15968;SDS011;8085;53.472;9.794;2023-05-23T03:20:43;48.50;;;32.03;;
15968;SDS011;8085;53.472;9.794;2023-05-23T03:23:10;46.13;;;31.50;;
15968;SDS011;8085;53.472;9.794;2023-05-23T03:25:37;43.23;;;31.53;;
15968;SDS011;8085;53.472;9.794;2023-05-23T03:28:04;46.77;;;31.67;;
15968;SDS011;8085;53.472;9.794;2023-05-23T03:30:32;45.97;;;30.73;;
15968;SDS011;8085;53.472;9.794;2023-05-23T03:32:59;45.77;;;30.30;;
15968;SDS011;8085;53.472;9.794;2023-05-23T03:35:27;46.73;;;30.83;;
15968;SDS011;8085;53.472;9.794;2023-05-23T03:37:54;41.83;;;28.97;;
15968;SDS011;8085;53.472;9.794;2023-05-23T03:40:20;41.50;;;28.50;;
15968;SDS011;8085;53.472;9.794;2023-05-23T03:42:47;46.03;;;29.77;;
15968;SDS011;8085;53.472;9.794;2023-05-23T03:45:26;44.80;;;28.70;;
15968;SDS011;8085;53.472;9.794;2023-05-23T03:47:54;44.97;;;29.17;;
15968;SDS011;8085;53.472;9.794;2023-05-23T03:50:21;43.30;;;28.50;;
15968;SDS011;8085;53.472;9.794;2023-05-23T03:52:48;46.57;;;29.53;;
15968;SDS011;8085;53.472;9.794;2023-05-23T03:55:15;45.73;;;29.43;;
15968;SDS011;8085;53.472;9.794;2023-05-23T03:57:45;43.93;;;28.80;;
15968;SDS011;8085;53.472;9.794;2023-05-23T04:00:13;42.10;;;28.03;;
15968;SDS011;8085;53.472;9.794;2023-05-23T04:02:40;42.83;;;28.20;;
15968;SDS011;8085;53.472;9.794;2023-05-23T04:05:09;39.10;;;26.77;;
15968;SDS011;8085;53.472;9.794;2023-05-23T04:07:36;44.57;;;27.37;;
15968;SDS011;8085;53.472;9.794;2023-05-23T04:10:03;38.70;;;26.63;;
15968;SDS011;8085;53.472;9.794;2023-05-23T04:12:30;43.30;;;28.30;;
15968;SDS011;8085;53.472;9.794;2023-05-23T04:14:57;39.13;;;27.20;;
15968;SDS011;8085;53.472;9.794;2023-05-23T04:17:24;48.43;;;28.53;;
15968;SDS011;8085;53.472;9.794;2023-05-23T04:19:54;41.67;;;27.50;;
15968;SDS011;8085;53.472;9.794;2023-05-23T04:22:23;44.07;;;27.43;;
15968;SDS011;8085;53.472;9.794;2023-05-23T04:24:50;39.30;;;26.53;;
15968;SDS011;8085;53.472;9.794;2023-05-23T04:27:17;43.60;;;27.33;;
15968;SDS011;8085;53.472;9.794;2023-05-23T04:29:44;38.40;;;25.67;;
15968;SDS011;8085;53.472;9.794;2023-05-23T04:32:11;40.13;;;26.60;;
15968;SDS011;8085;53.472;9.794;2023-05-23T04:34:38;38.87;;;26.20;;
15968;SDS011;8085;53.472;9.794;2023-05-23T04:37:06;43.43;;;27.63;;
15968;SDS011;8085;53.472;9.794;2023-05-23T04:39:34;43.80;;;27.17;;
15968;SDS011;8085;53.472;9.794;2023-05-23T04:42:02;39.07;;;26.50;;
15968;SDS011;8085;53.472;9.794;2023-05-23T04:44:31;40.57;;;27.37;;
15968;SDS011;8085;53.472;9.794;2023-05-23T04:46:58;46.23;;;27.77;;
15968;SDS011;8085;53.472;9.794;2023-05-23T04:49:26;45.40;;;27.57;;
15968;SDS011;8085;53.472;9.794;2023-05-23T04:51:53;39.90;;;26.70;;
15968;SDS011;8085;53.472;9.794;2023-05-23T04:54:20;45.67;;;28.83;;
15968;SDS011;8085;53.472;9.794;2023-05-23T04:56:48;54.00;;;30.77;;
15968;SDS011;8085;53.472;9.794;2023-05-23T04:59:15;50.63;;;30.37;;
15968;SDS011;8085;53.472;9.794;2023-05-23T05:01:42;49.63;;;30.27;;
15968;SDS011;8085;53.472;9.794;2023-05-23T05:04:09;48.97;;;31.80;;
15968;SDS011;8085;53.472;9.794;2023-05-23T05:06:36;49.50;;;29.53;;
15968;SDS011;8085;53.472;9.794;2023-05-23T05:09:03;49.80;;;31.43;;
15968;SDS011;8085;53.472;9.794;2023-05-23T05:11:30;52.00;;;31.13;;
15968;SDS011;8085;53.472;9.794;2023-05-23T05:13:58;48.80;;;31.60;;
15968;SDS011;8085;53.472;9.794;2023-05-23T05:16:25;60.53;;;33.97;;
15968;SDS011;8085;53.472;9.794;2023-05-23T05:18:52;55.30;;;31.40;;
15968;SDS011;8085;53.472;9.794;2023-05-23T05:21:19;59.87;;;32.90;;
15968;SDS011;8085;53.472;9.794;2023-05-23T05:23:46;67.37;;;34.90;;
15968;SDS011;8085;53.472;9.794;2023-05-23T05:26:13;59.43;;;35.00;;
15968;SDS011;8085;53.472;9.794;2023-05-23T05:28:40;69.87;;;36.70;;
15968;SDS011;8085;53.472;9.794;2023-05-23T05:31:08;67.83;;;35.37;;
15968;SDS011;8085;53.472;9.794;2023-05-23T05:33:39;66.67;;;35.60;;
15968;SDS011;8085;53.472;9.794;2023-05-23T05:36:09;73.70;;;38.40;;
15968;SDS011;8085;53.472;9.794;2023-05-23T05:38:37;76.80;;;38.07;;
15968;SDS011;8085;53.472;9.794;2023-05-23T05:41:04;69.93;;;39.17;;
15968;SDS011;8085;53.472;9.794;2023-05-23T05:43:31;72.97;;;39.27;;
15968;SDS011;8085;53.472;9.794;2023-05-23T05:45:57;60.17;;;37.23;;
15968;SDS011;8085;53.472;9.794;2023-05-23T05:48:26;70.20;;;37.40;;
15968;SDS011;8085;53.472;9.794;2023-05-23T05:50:53;57.17;;;36.50;;
15968;SDS011;8085;53.472;9.794;2023-05-23T05:53:19;63.33;;;36.90;;
15968;SDS011;8085;53.472;9.794;2023-05-23T05:55:46;68.20;;;37.97;;
15968;SDS011;8085;53.472;9.794;2023-05-23T05:58:13;58.90;;;36.40;;
15968;SDS011;8085;53.472;9.794;2023-05-23T06:00:40;53.63;;;35.47;;
15968;SDS011;8085;53.472;9.794;2023-05-23T06:03:08;52.33;;;34.33;;
15968;SDS011;8085;53.472;9.794;2023-05-23T06:05:36;53.00;;;34.17;;
15968;SDS011;8085;53.472;9.794;2023-05-23T06:08:04;50.97;;;34.53;;
15968;SDS011;8085;53.472;9.794;2023-05-23T06:10:31;58.00;;;35.37;;
15968;SDS011;8085;53.472;9.794;2023-05-23T06:12:58;51.47;;;35.53;;
15968;SDS011;8085;53.472;9.794;2023-05-23T06:15:25;71.40;;;39.23;;
15968;SDS011;8085;53.472;9.794;2023-05-23T06:17:52;74.73;;;41.07;;
15968;SDS011;8085;53.472;9.794;2023-05-23T06:20:19;69.93;;;40.40;;
15968;SDS011;8085;53.472;9.794;2023-05-23T06:22:48;73.53;;;42.70;;
15968;SDS011;8085;53.472;9.794;2023-05-23T06:25:15;77.27;;;42.17;;
15968;SDS011;8085;53.472;9.794;2023-05-23T06:27:42;77.80;;;42.90;;
15968;SDS011;8085;53.472;9.794;2023-05-23T06:30:10;73.83;;;40.53;;
15968;SDS011;8085;53.472;9.794;2023-05-23T06:32:38;76.00;;;39.43;;
15968;SDS011;8085;53.472;9.794;2023-05-23T06:35:06;64.80;;;37.73;;
15968;SDS011;8085;53.472;9.794;2023-05-23T06:37:33;63.07;;;38.20;;
15968;SDS011;8085;53.472;9.794;2023-05-23T06:40:02;58.40;;;34.93;;
15968;SDS011;8085;53.472;9.794;2023-05-23T06:42:29;55.43;;;35.33;;
15968;SDS011;8085;53.472;9.794;2023-05-23T06:44:56;42.60;;;29.27;;
15968;SDS011;8085;53.472;9.794;2023-05-23T06:47:23;39.77;;;25.90;;
15968;SDS011;8085;53.472;9.794;2023-05-23T06:49:50;26.73;;;19.93;;
15968;SDS011;8085;53.472;9.794;2023-05-23T06:52:17;24.53;;;17.53;;
15968;SDS011;8085;53.472;9.794;2023-05-23T06:54:44;21.63;;;16.23;;
15968;SDS011;8085;53.472;9.794;2023-05-23T06:57:12;18.00;;;14.63;;
15968;SDS011;8085;53.472;9.794;2023-05-23T06:59:39;16.23;;;12.67;;
15968;SDS011;8085;53.472;9.794;2023-05-23T07:02:06;17.77;;;13.17;;
15968;SDS011;8085;53.472;9.794;2023-05-23T07:04:33;16.40;;;12.37;;
15968;SDS011;8085;53.472;9.794;2023-05-23T07:06:59;15.10;;;11.33;;
15968;SDS011;8085;53.472;9.794;2023-05-23T07:09:26;15.27;;;11.37;;
15968;SDS011;8085;53.472;9.794;2023-05-23T07:11:53;16.47;;;10.30;;
15968;SDS011;8085;53.472;9.794;2023-05-23T07:14:21;12.03;;;9.67;;
15968;SDS011;8085;53.472;9.794;2023-05-23T07:16:48;12.30;;;9.50;;
15968;SDS011;8085;53.472;9.794;2023-05-23T07:19:15;12.77;;;9.17;;
15968;SDS011;8085;53.472;9.794;2023-05-23T07:21:42;13.27;;;9.90;;
15968;SDS011;8085;53.472;9.794;2023-05-23T07:24:09;11.33;;;9.47;;
15968;SDS011;8085;53.472;9.794;2023-05-23T07:26:36;16.73;;;9.70;;
15968;SDS011;8085;53.472;9.794;2023-05-23T07:29:02;14.33;;;10.67;;
15968;SDS011;8085;53.472;9.794;2023-05-23T07:31:31;16.47;;;10.97;;
15968;SDS011;8085;53.472;9.794;2023-05-23T07:33:58;13.27;;;10.47;;
15968;SDS011;8085;53.472;9.794;2023-05-23T07:36:24;14.53;;;11.47;;
15968;SDS011;8085;53.472;9.794;2023-05-23T07:38:51;13.43;;;11.67;;
15968;SDS011;8085;53.472;9.794;2023-05-23T07:41:18;14.83;;;11.80;;
15968;SDS011;8085;53.472;9.794;2023-05-23T07:43:46;16.90;;;11.50;;
15968;SDS011;8085;53.472;9.794;2023-05-23T07:46:13;13.60;;;11.27;;
15968;SDS011;8085;53.472;9.794;2023-05-23T07:48:42;15.73;;;11.00;;
15968;SDS011;8085;53.472;9.794;2023-05-23T07:51:09;12.63;;;10.10;;
15968;SDS011;8085;53.472;9.794;2023-05-23T07:53:35;11.70;;;8.97;;
15968;SDS011;8085;53.472;9.794;2023-05-23T07:56:04;11.50;;;9.03;;
15968;SDS011;8085;53.472;9.794;2023-05-23T07:58:31;11.83;;;8.83;;
15968;SDS011;8085;53.472;9.794;2023-05-23T08:00:58;11.47;;;8.10;;
15968;SDS011;8085;53.472;9.794;2023-05-23T08:03:24;11.30;;;8.17;;
15968;SDS011;8085;53.472;9.794;2023-05-23T08:05:53;7.97;;;6.73;;
15968;SDS011;8085;53.472;9.794;2023-05-23T08:08:20;8.60;;;7.07;;
15968;SDS011;8085;53.472;9.794;2023-05-23T08:10:46;7.77;;;6.73;;
15968;SDS011;8085;53.472;9.794;2023-05-23T08:13:14;8.97;;;7.13;;
15968;SDS011;8085;53.472;9.794;2023-05-23T08:15:40;8.03;;;7.07;;
15968;SDS011;8085;53.472;9.794;2023-05-23T08:18:07;14.27;;;12.73;;
15968;SDS011;8085;53.472;9.794;2023-05-23T08:20:35;18.80;;;14.13;;
15968;SDS011;8085;53.472;9.794;2023-05-23T08:23:03;22.27;;;16.90;;
15968;SDS011;8085;53.472;9.794;2023-05-23T08:25:30;20.77;;;17.47;;
15968;SDS011;8085;53.472;9.794;2023-05-23T08:27:57;22.87;;;18.23;;
15968;SDS011;8085;53.472;9.794;2023-05-23T08:30:24;24.00;;;17.57;;
15968;SDS011;8085;53.472;9.794;2023-05-23T08:32:52;22.13;;;16.90;;
15968;SDS011;8085;53.472;9.794;2023-05-23T08:35:19;22.73;;;18.67;;
15968;SDS011;8085;53.472;9.794;2023-05-23T08:37:47;22.77;;;17.40;;
15968;SDS011;8085;53.472;9.794;2023-05-23T08:40:17;20.60;;;16.07;;
15968;SDS011;8085;53.472;9.794;2023-05-23T08:42:45;21.93;;;15.00;;
15968;SDS011;8085;53.472;9.794;2023-05-23T08:45:12;20.93;;;15.63;;
15968;SDS011;8085;53.472;9.794;2023-05-23T08:47:39;23.40;;;17.80;;
15968;SDS011;8085;53.472;9.794;2023-05-23T08:50:10;32.17;;;19.53;;
15968;SDS011;8085;53.472;9.794;2023-05-23T08:52:39;34.10;;;22.97;;
15968;SDS011;8085;53.472;9.794;2023-05-23T08:55:10;31.33;;;22.10;;
15968;SDS011;8085;53.472;9.794;2023-05-23T08:57:39;26.47;;;20.07;;
15968;SDS011;8085;53.472;9.794;2023-05-23T09:00:08;25.37;;;19.27;;
15968;SDS011;8085;53.472;9.794;2023-05-23T09:02:39;27.07;;;20.43;;
15968;SDS011;8085;53.472;9.794;2023-05-23T09:05:08;24.90;;;17.70;;
15968;SDS011;8085;53.472;9.794;2023-05-23T09:07:35;23.73;;;15.87;;
15968;SDS011;8085;53.472;9.794;2023-05-23T09:10:02;24.27;;;16.97;;
15968;SDS011;8085;53.472;9.794;2023-05-23T09:12:31;18.93;;;16.00;;
15968;SDS011;8085;53.472;9.794;2023-05-23T09:15:01;25.17;;;14.73;;
15968;SDS011;8085;53.472;9.794;2023-05-23T09:17:30;21.57;;;11.67;;
15968;SDS011;8085;53.472;9.794;2023-05-23T09:19:57;17.13;;;10.47;;
15968;SDS011;8085;53.472;9.794;2023-05-23T09:22:24;15.17;;;7.73;;
15968;SDS011;8085;53.472;9.794;2023-05-23T09:24:52;10.70;;;6.17;;
15968;SDS011;8085;53.472;9.794;2023-05-23T09:27:20;12.93;;;5.90;;
15968;SDS011;8085;53.472;9.794;2023-05-23T09:29:47;8.40;;;5.30;;
15968;SDS011;8085;53.472;9.794;2023-05-23T09:32:16;8.10;;;6.20;;
15968;SDS011;8085;53.472;9.794;2023-05-23T09:34:53;11.67;;;8.20;;
15968;SDS011;8085;53.472;9.794;2023-05-23T09:37:21;10.03;;;7.83;;
15968;SDS011;8085;53.472;9.794;2023-05-23T09:39:48;12.93;;;8.17;;
15968;SDS011;8085;53.472;9.794;2023-05-23T09:42:19;12.50;;;8.47;;
15968;SDS011;8085;53.472;9.794;2023-05-23T09:44:47;10.63;;;8.10;;
15968;SDS011;8085;53.472;9.794;2023-05-23T09:47:15;10.87;;;7.97;;
15968;SDS011;8085;53.472;9.794;2023-05-23T09:49:43;11.37;;;7.10;;
15968;SDS011;8085;53.472;9.794;2023-05-23T09:52:11;10.20;;;5.20;;
15968;SDS011;8085;53.472;9.794;2023-05-23T09:54:38;10.47;;;5.07;;
15968;SDS011;8085;53.472;9.794;2023-05-23T09:57:05;15.00;;;5.47;;
15968;SDS011;8085;53.472;9.794;2023-05-23T09:59:36;11.33;;;5.10;;
15968;SDS011;8085;53.472;9.794;2023-05-23T10:02:06;12.93;;;5.10;;
15968;SDS011;8085;53.472;9.794;2023-05-23T10:04:37;8.70;;;4.43;;
15968;SDS011;8085;53.472;9.794;2023-05-23T10:07:08;7.80;;;3.90;;
15968;SDS011;8085;53.472;9.794;2023-05-23T10:09:40;16.37;;;5.43;;
15968;SDS011;8085;53.472;9.794;2023-05-23T10:12:20;12.23;;;5.33;;
15968;SDS011;8085;53.472;9.794;2023-05-23T10:15:08;18.27;;;6.17;;
15968;SDS011;8085;53.472;9.794;2023-05-23T10:17:40;12.20;;;5.43;;
15968;SDS011;8085;53.472;9.794;2023-05-23T10:20:28;9.53;;;5.00;;
15968;SDS011;8085;53.472;9.794;2023-05-23T10:22:57;11.30;;;4.93;;
15968;SDS011;8085;53.472;9.794;2023-05-23T10:25:25;10.27;;;4.17;;
15968;SDS011;8085;53.472;9.794;2023-05-23T10:27:53;9.50;;;4.20;;
15968;SDS011;8085;53.472;9.794;2023-05-23T10:30:24;8.90;;;3.70;;
15968;SDS011;8085;53.472;9.794;2023-05-23T10:32:51;10.33;;;3.93;;
15968;SDS011;8085;53.472;9.794;2023-05-23T10:35:21;10.27;;;3.33;;
15968;SDS011;8085;53.472;9.794;2023-05-23T10:37:58;13.03;;;3.50;;
15968;SDS011;8085;53.472;9.794;2023-05-23T10:40:30;13.93;;;3.63;;
15968;SDS011;8085;53.472;9.794;2023-05-23T10:43:13;9.13;;;3.83;;
15968;SDS011;8085;53.472;9.794;2023-05-23T10:45:45;10.27;;;3.57;;
15968;SDS011;8085;53.472;9.794;2023-05-23T10:48:19;10.57;;;3.77;;
15968;SDS011;8085;53.472;9.794;2023-05-23T10:53:36;9.30;;;3.43;;
15968;SDS011;8085;53.472;9.794;2023-05-23T10:56:06;13.60;;;3.97;;
15968;SDS011;8085;53.472;9.794;2023-05-23T10:58:37;12.57;;;3.57;;
15968;SDS011;8085;53.472;9.794;2023-05-23T11:01:08;15.50;;;4.07;;
15968;SDS011;8085;53.472;9.794;2023-05-23T11:03:48;10.80;;;4.40;;
15968;SDS011;8085;53.472;9.794;2023-05-23T11:06:27;14.23;;;3.77;;
15968;SDS011;8085;53.472;9.794;2023-05-23T11:09:05;11.73;;;3.30;;
15968;SDS011;8085;53.472;9.794;2023-05-23T11:11:50;10.23;;;3.60;;
15968;SDS011;8085;53.472;9.794;2023-05-23T11:14:18;11.23;;;3.67;;
15968;SDS011;8085;53.472;9.794;2023-05-23T11:16:45;12.23;;;2.80;;
15968;SDS011;8085;53.472;9.794;2023-05-23T11:19:22;8.07;;;2.93;;
15968;SDS011;8085;53.472;9.794;2023-05-23T11:21:52;8.10;;;2.93;;
15968;SDS011;8085;53.472;9.794;2023-05-23T11:24:23;9.67;;;3.17;;
15968;SDS011;8085;53.472;9.794;2023-05-23T11:27:15;13.47;;;3.47;;
15968;SDS011;8085;53.472;9.794;2023-05-23T11:30:03;11.53;;;3.00;;
15968;SDS011;8085;53.472;9.794;2023-05-23T11:32:40;7.60;;;3.20;;
15968;SDS011;8085;53.472;9.794;2023-05-23T11:35:08;14.50;;;3.50;;
15968;SDS011;8085;53.472;9.794;2023-05-23T11:37:36;13.97;;;3.33;;
15968;SDS011;8085;53.472;9.794;2023-05-23T11:42:55;14.63;;;3.60;;
15968;SDS011;8085;53.472;9.794;2023-05-23T11:45:22;11.97;;;3.33;;
15968;SDS011;8085;53.472;9.794;2023-05-23T11:47:49;13.77;;;3.63;;
15968;SDS011;8085;53.472;9.794;2023-05-23T11:50:16;13.60;;;3.97;;
15968;SDS011;8085;53.472;9.794;2023-05-23T11:52:44;14.37;;;3.97;;
15968;SDS011;8085;53.472;9.794;2023-05-23T11:55:15;16.13;;;4.57;;
15968;SDS011;8085;53.472;9.794;2023-05-23T11:57:44;14.17;;;3.97;;
15968;SDS011;8085;53.472;9.794;2023-05-23T12:00:12;13.03;;;3.50;;
15968;SDS011;8085;53.472;9.794;2023-05-23T12:02:40;13.03;;;3.63;;
15968;SDS011;8085;53.472;9.794;2023-05-23T12:05:07;12.07;;;3.27;;
15968;SDS011;8085;53.472;9.794;2023-05-23T12:07:39;13.43;;;3.60;;
15968;SDS011;8085;53.472;9.794;2023-05-23T12:10:07;16.23;;;3.87;;
15968;SDS011;8085;53.472;9.794;2023-05-23T12:12:35;11.43;;;3.77;;
15968;SDS011;8085;53.472;9.794;2023-05-23T12:15:07;10.87;;;3.37;;
15968;SDS011;8085;53.472;9.794;2023-05-23T12:17:35;11.17;;;3.43;;
15968;SDS011;8085;53.472;9.794;2023-05-23T12:20:03;13.57;;;3.93;;
15968;SDS011;8085;53.472;9.794;2023-05-23T12:22:38;9.90;;;3.60;;
15968;SDS011;8085;53.472;9.794;2023-05-23T12:25:07;13.33;;;4.23;;
15968;SDS011;8085;53.472;9.794;2023-05-23T12:27:38;14.20;;;3.20;;
15968;SDS011;8085;53.472;9.794;2023-05-23T12:30:16;8.43;;;3.23;;
15968;SDS011;8085;53.472;9.794;2023-05-23T12:32:44;10.63;;;3.00;;
15968;SDS011;8085;53.472;9.794;2023-05-23T12:35:12;14.50;;;3.83;;
15968;SDS011;8085;53.472;9.794;2023-05-23T12:37:40;13.93;;;3.40;;
15968;SDS011;8085;53.472;9.794;2023-05-23T12:40:11;11.77;;;3.00;;
15968;SDS011;8085;53.472;9.794;2023-05-23T12:42:51;12.57;;;3.30;;
15968;SDS011;8085;53.472;9.794;2023-05-23T12:45:20;11.23;;;3.50;;
15968;SDS011;8085;53.472;9.794;2023-05-23T12:47:48;12.00;;;3.67;;
15968;SDS011;8085;53.472;9.794;2023-05-23T12:50:15;13.03;;;3.50;;
15968;SDS011;8085;53.472;9.794;2023-05-23T12:52:42;10.90;;;3.30;;
15968;SDS011;8085;53.472;9.794;2023-05-23T12:55:09;13.20;;;3.40;;
15968;SDS011;8085;53.472;9.794;2023-05-23T12:57:38;10.40;;;3.50;;
15968;SDS011;8085;53.472;9.794;2023-05-23T13:00:05;11.93;;;3.57;;
15968;SDS011;8085;53.472;9.794;2023-05-23T13:02:34;16.23;;;3.53;;
15968;SDS011;8085;53.472;9.794;2023-05-23T13:05:01;10.40;;;3.83;;
15968;SDS011;8085;53.472;9.794;2023-05-23T13:07:28;12.27;;;3.40;;
15968;SDS011;8085;53.472;9.794;2023-05-23T13:09:55;9.30;;;3.50;;
15968;SDS011;8085;53.472;9.794;2023-05-23T13:12:22;8.40;;;3.20;;
15968;SDS011;8085;53.472;9.794;2023-05-23T13:14:50;12.07;;;3.63;;
15968;SDS011;8085;53.472;9.794;2023-05-23T13:17:17;12.77;;;3.30;;
15968;SDS011;8085;53.472;9.794;2023-05-23T13:19:45;13.43;;;3.93;;
15968;SDS011;8085;53.472;9.794;2023-05-23T13:22:12;13.83;;;3.40;;
15968;SDS011;8085;53.472;9.794;2023-05-23T13:24:39;12.57;;;3.77;;
15968;SDS011;8085;53.472;9.794;2023-05-23T13:27:07;11.37;;;3.50;;
15968;SDS011;8085;53.472;9.794;2023-05-23T13:29:34;14.57;;;3.40;;
15968;SDS011;8085;53.472;9.794;2023-05-23T13:32:01;11.07;;;2.87;;
15968;SDS011;8085;53.472;9.794;2023-05-23T13:34:28;10.17;;;3.40;;
15968;SDS011;8085;53.472;9.794;2023-05-23T13:36:56;12.77;;;3.60;;
15968;SDS011;8085;53.472;9.794;2023-05-23T13:39:23;14.83;;;4.40;;
15968;SDS011;8085;53.472;9.794;2023-05-23T13:41:53;16.73;;;3.90;;
15968;SDS011;8085;53.472;9.794;2023-05-23T13:44:20;20.33;;;4.20;;
15968;SDS011;8085;53.472;9.794;2023-05-23T13:46:53;13.67;;;3.77;;
15968;SDS011;8085;53.472;9.794;2023-05-23T13:49:23;12.10;;;3.77;;
15968;SDS011;8085;53.472;9.794;2023-05-23T13:51:53;12.40;;;3.13;;
15968;SDS011;8085;53.472;9.794;2023-05-23T13:54:22;13.80;;;3.20;;
15968;SDS011;8085;53.472;9.794;2023-05-23T13:56:51;14.50;;;3.37;;
15968;SDS011;8085;53.472;9.794;2023-05-23T13:59:18;15.70;;;3.30;;
15968;SDS011;8085;53.472;9.794;2023-05-23T14:01:45;12.90;;;3.33;;
15968;SDS011;8085;53.472;9.794;2023-05-23T14:04:13;14.50;;;3.43;;
15968;SDS011;8085;53.472;9.794;2023-05-23T14:06:40;14.27;;;3.70;;
15968;SDS011;8085;53.472;9.794;2023-05-23T14:09:07;15.40;;;3.50;;
15968;SDS011;8085;53.472;9.794;2023-05-23T14:11:39;14.63;;;4.03;;
15968;SDS011;8085;53.472;9.794;2023-05-23T14:14:07;14.30;;;3.23;;
15968;SDS011;8085;53.472;9.794;2023-05-23T14:16:34;17.40;;;3.40;;
15968;SDS011;8085;53.472;9.794;2023-05-23T14:19:01;13.90;;;3.30;;
15968;SDS011;8085;53.472;9.794;2023-05-23T14:21:28;17.87;;;3.67;;
15968;SDS011;8085;53.472;9.794;2023-05-23T14:23:55;14.30;;;3.47;;
15968;SDS011;8085;53.472;9.794;2023-05-23T14:26:26;13.10;;;3.57;;
15968;SDS011;8085;53.472;9.794;2023-05-23T14:28:54;16.80;;;4.03;;
15968;SDS011;8085;53.472;9.794;2023-05-23T14:31:21;15.10;;;3.97;;
15968;SDS011;8085;53.472;9.794;2023-05-23T14:33:48;15.03;;;3.43;;
15968;SDS011;8085;53.472;9.794;2023-05-23T14:36:15;16.80;;;3.87;;
15968;SDS011;8085;53.472;9.794;2023-05-23T14:38:45;15.37;;;3.20;;
15968;SDS011;8085;53.472;9.794;2023-05-23T14:41:16;9.33;;;3.33;;
15968;SDS011;8085;53.472;9.794;2023-05-23T14:43:43;21.30;;;3.93;;
15968;SDS011;8085;53.472;9.794;2023-05-23T14:46:12;11.43;;;3.50;;
15968;SDS011;8085;53.472;9.794;2023-05-23T14:48:39;18.43;;;3.67;;
15968;SDS011;8085;53.472;9.794;2023-05-23T14:51:06;15.70;;;3.70;;
15968;SDS011;8085;53.472;9.794;2023-05-23T14:53:34;16.03;;;3.57;;
15968;SDS011;8085;53.472;9.794;2023-05-23T14:56:01;18.37;;;3.70;;